Airfield :
LOGIN :

Register | Disclaimer

   EN    FR    IT 

 










Legend :    VFR   Marginal VFR   IFR   Intensive IFR   Very Intensive IFR
Visi :
Ceiling :
>= 8 km
>= 3000ft
5 to 8 km
1000 to 3000 ft
1500m to 5 km
500 to 1000 ft
800 to 1500m
200 to 500 ft
< 800m
< 200 ft
Symbols :   Thunderstorms  Fog  Heavy snow  Heavy precipitations  Wind > 20 kt
SIGMETs :     Misc.  Thunderstorms  Icing  Turbulence  Mountain Waves  Volcanic Ashes






- Airport Elevation : 13 ft
- IATA code : CEQ


LFMD - Cannes Mandelieu

CURRENT METAR :
  • 160530Z AUTO VRB03KT 9999 OVC092 15/12 Q1007 NOSIG

EXPIRED METARs :
  • 160500Z AUTO VRB02KT 9999 SCT092 BKN150 OVC230 15/12 Q1007 NOSIG
  • 160430Z AUTO 00000KT CAVOK 14/12 Q1007 BECMG 25010KT
  • 160400Z AUTO 00000KT CAVOK 15/12 Q1007 BECMG 25010KT
  • 160330Z AUTO 00000KT CAVOK 14/12 Q1007 BECMG 25010KT
  • 160300Z AUTO 36003KT 9999 FEW092 BKN110 BKN140 14/11 Q1007 BECMG 25010KT

TAF TAF LFMD
Valid from the 16 at 03:00 until the 17 at 03:00 UTC


160200Z 1603/1703 25010KT 9999 FEW080 BKN150
PROB40
TEMPO 1610/1618 24020G30KT
BECMG 1618/1620 NSC
ATIS : +33 4 93 48 73 23



MET'MAP, your aeronautical weather chart ! - Copyright ORBIFLY December 2007 - Disclaimer

ORBIFLY MET'MAP TEAM :

Programming & Development : Alexandra Zaïnal
Concept & original design : Baudouin d'Aumeries
Assistance for programming : Marc-Olivier Méhu
Technical & hardware support : Manuel Goepfert

Contact : metmap@orbifly.com




SOURCES & CREDITS :

   NOAA